LPPS/PXO METAR and TAF weather

Enter ICAO airport designator
Station Type Date Time Source
LPPS METAR 2022/06/30 00:00 UTC NOAA

LPPS 300000Z 02013KT 9999 SCT015 SCT030 19/13 Q1023


Station Type Date Time Source
LPPS Decoded METAR 2022/06/30 00:00 UTC NOAA

Porto Santo, Portugal (LPPS) 33-04N 016-21W 82M
Jun 29, 2022 - 08:00 PM EDT / 2022.06.30 0000 UTC
Wind: from the NNE (020 degrees) at 15 MPH (13 KT):0
Visibility: greater than 7 mile(s):0
Sky conditions: partly cloudy
Temperature: 66 F (19 C)
Dew Point: 55 F (13 C)
Relative Humidity: 68%
Pressure (altimeter): 30.21 in. Hg (1023 hPa)
ob: LPPS 300000Z 02013KT 9999 SCT015 SCT030 19/13 Q1023
cycle: 0

Station Type Date Time Source
LPPS TAF 2022/06/29 18:18 UTC NOAA

TAF LPPS 291700Z 2918/3024 01013KT 9999 SCT015
TEMPO 2918/3024 FEW015 SCT030

Example: see airport list